Polk, Missouri
Current Conditions -  °F | °C
As of 2:52 PM on Tuesday 21 Oct 2014 (Local Time) from KSGF Reporting Station
Clear Clear  
Wind Chill: 74°   Ceiling: Unl
Heat Index: 74°   Visibility: 10mi
Dew Point: 44°   Wind: 6mph
Humidity: 34%   Direction: 300°WNW
Pressure: 30.09"   Gusts: NA
Location:  37.73°N, 93.3°W
Report Text: KSGF 211952Z 30005KT 10SM CLR 23/07 A3009 RMK AO2 SLP183 T02330067
Loading
Personal Weather Stations






























Interactive Weather Map
Tropical Storm Tracking
New forecast layout! Learn more

10-Day Weather Forecast

Advertisements
Track Severe Weather on mobile